Time;durP1;ratioP1;P1;durP2;ratioP2;P2;SDS_P1;SDS_P2;PMS_P1;PMS_P2;Temp;Humidity;BMP_temperature;BMP_pressure;BME280_temperature;BME280_humidity;BME280_pressure;Samples;Min_cycle;Max_cycle;Signal;HPM_P1;HPM_P2
2023/02/04 00:01:13;;;;;;;;;;;9.60;99.90;;;;;;5079666;28;20596;-72
2023/02/04 00:03:40;;;;;;;;;;;9.50;99.90;;;;;;5085311;28;20024;-73
2023/02/04 00:06:07;;;;;;;;;;;9.50;99.90;;;;;;5085293;28;19924;-72
2023/02/04 00:08:33;;;;;;;;;;;9.60;99.90;;;;;;5075239;28;19924;-72
2023/02/04 00:11:00;;;;;;;;;;;9.50;99.90;;;;;;5075348;28;20211;-72
2023/02/04 00:13:26;;;;;;;;;;;9.50;99.90;;;;;;5070617;28;19925;-72
2023/02/04 00:15:53;;;;;;;;;;;9.50;99.90;;;;;;5079852;28;19931;-72
2023/02/04 00:18:21;;;;;;;;;;;9.50;99.90;;;;;;5071906;28;19928;-72
2023/02/04 00:20:48;;;;;;;;;;;9.50;99.90;;;;;;5070211;28;20307;-73
2023/02/04 00:23:14;;;;;;;;;;;9.50;99.90;;;;;;5073680;28;19930;-72
2023/02/04 00:25:41;;;;;;;;;;;9.50;99.90;;;;;;5073818;28;19931;-73
2023/02/04 00:28:07;;;;;;;;;;;9.50;99.90;;;;;;5081453;28;19935;-73
2023/02/04 00:30:34;;;;;;;;;;;9.50;99.90;;;;;;5075142;28;19924;-73
2023/02/04 00:33:01;;;;;;;;;;;9.50;99.90;;;;;;5080173;28;20387;-73
2023/02/04 00:35:29;;;;;;;;;;;9.40;99.90;;;;;;5084305;28;19935;-73
2023/02/04 00:37:56;;;;;;;;;;;9.40;99.90;;;;;;5071566;28;20346;-73
2023/02/04 00:40:22;;;;;;;;;;;9.40;99.90;;;;;;5077539;28;19939;-73
2023/02/04 00:42:49;;;;;;;;;;;9.40;99.90;;;;;;5080164;28;19985;-74
2023/02/04 00:45:16;;;;;;;;;;;9.40;99.90;;;;;;5079749;28;19928;-74
2023/02/04 00:47:42;;;;;;;;;;;9.40;99.90;;;;;;5083516;28;20134;-72
2023/02/04 00:50:09;;;;;;;;;;;9.40;99.90;;;;;;5080124;28;19952;-73
2023/02/04 00:52:37;;;;;;;;;;;9.40;99.90;;;;;;5072702;28;20027;-73
2023/02/04 00:55:06;;;;;;;;;;;9.40;99.90;;;;;;5084511;28;19930;-74
2023/02/04 00:57:33;;;;;;;;;;;9.40;99.90;;;;;;5074219;28;19946;-72
2023/02/04 01:00:00;;;;;;;;;;;9.40;99.90;;;;;;5068882;28;19924;-73
2023/02/04 01:02:26;;;;;;;;;;;9.40;99.90;;;;;;5071650;28;19964;-73
2023/02/04 01:04:53;;;;;;;;;;;9.40;99.90;;;;;;5080845;28;19959;-73
2023/02/04 01:07:20;;;;;;;;;;;9.40;99.90;;;;;;5071832;28;20399;-73
2023/02/04 01:09:48;;;;;;;;;;;9.40;99.90;;;;;;5080733;28;20426;-73
2023/02/04 01:12:14;;;;;;;;;;;9.40;99.90;;;;;;5076808;28;20018;-72
2023/02/04 01:14:41;;;;;;;;;;;9.40;99.90;;;;;;5076834;28;20322;-72
2023/02/04 01:17:08;;;;;;;;;;;9.40;99.90;;;;;;5069955;28;19956;-73
2023/02/04 01:19:34;;;;;;;;;;;9.40;99.90;;;;;;5071732;28;20015;-73
2023/02/04 01:22:01;;;;;;;;;;;9.40;99.90;;;;;;5076133;28;19928;-73
2023/02/04 01:24:27;;;;;;;;;;;9.40;99.90;;;;;;5073008;28;19943;-72
2023/02/04 01:26:55;;;;;;;;;;;9.40;99.90;;;;;;5074602;28;20018;-72
2023/02/04 01:29:22;;;;;;;;;;;9.40;99.90;;;;;;5074644;28;19928;-73
2023/02/04 01:31:49;;;;;;;;;;;9.30;99.90;;;;;;5084055;28;20351;-73
2023/02/04 01:34:15;;;;;;;;;;;9.40;99.90;;;;;;5087550;28;19930;-72
2023/02/04 01:36:42;;;;;;;;;;;9.40;99.90;;;;;;5068635;28;20008;-72
2023/02/04 01:39:09;;;;;;;;;;;9.40;99.90;;;;;;5083720;28;20446;-73
2023/02/04 01:41:35;;;;;;;;;;;9.40;99.90;;;;;;5077722;28;20011;-72
2023/02/04 01:44:04;;;;;;;;;;;9.40;99.90;;;;;;5080798;28;20413;-72
2023/02/04 01:46:33;;;;;;;;;;;9.40;99.90;;;;;;5076549;28;20298;-72
2023/02/04 01:48:59;;;;;;;;;;;9.40;99.90;;;;;;5075000;28;20044;-72
2023/02/04 01:51:28;;;;;;;;;;;9.40;99.90;;;;;;5076371;28;20006;-72
2023/02/04 01:53:55;;;;;;;;;;;9.40;99.90;;;;;;5068958;28;20397;-73
2023/02/04 01:56:22;;;;;;;;;;;9.40;99.90;;;;;;5076477;28;20007;-72
2023/02/04 01:58:50;;;;;;;;;;;9.40;99.90;;;;;;5071916;28;20397;-73
2023/02/04 02:01:31;;;;;;;;;;;9.40;99.90;;;;;;5078920;28;19924;-72
2023/02/04 02:03:59;;;;;;;;;;;9.40;99.90;;;;;;5073950;28;20379;-73
2023/02/04 02:06:26;;;;;;;;;;;9.40;99.90;;;;;;5074874;28;19924;-73
2023/02/04 02:08:53;;;;;;;;;;;9.40;99.90;;;;;;5079515;28;19931;-73
2023/02/04 02:11:19;;;;;;;;;;;9.40;99.90;;;;;;5077931;28;19924;-72
2023/02/04 02:13:46;;;;;;;;;;;9.40;99.90;;;;;;5074239;28;20020;-72
2023/02/04 02:16:13;;;;;;;;;;;9.40;99.90;;;;;;5074609;28;20450;-72
2023/02/04 02:18:39;;;;;;;;;;;9.40;99.90;;;;;;5072627;28;19925;-72
2023/02/04 02:21:09;;;;;;;;;;;9.30;99.90;;;;;;5079177;28;19936;-71
2023/02/04 02:23:49;;;;;;;;;;;9.30;99.90;;;;;;5084311;28;19924;-71
2023/02/04 02:26:16;;;;;;;;;;;9.40;99.90;;;;;;5082229;28;20019;-71
2023/02/04 02:28:43;;;;;;;;;;;9.30;99.90;;;;;;5080017;28;20007;-71
2023/02/04 02:31:10;;;;;;;;;;;9.30;99.90;;;;;;5085586;28;20412;-72
2023/02/04 02:33:37;;;;;;;;;;;9.30;99.90;;;;;;5082103;28;19932;-72
2023/02/04 02:36:04;;;;;;;;;;;9.30;99.90;;;;;;5073724;28;19924;-72
2023/02/04 02:38:30;;;;;;;;;;;9.30;99.90;;;;;;5080781;28;19925;-72
2023/02/04 02:40:59;;;;;;;;;;;9.30;99.90;;;;;;5090722;28;19955;-72
2023/02/04 02:43:26;;;;;;;;;;;9.40;99.90;;;;;;5078920;28;19932;-72
2023/02/04 02:45:53;;;;;;;;;;;9.30;99.90;;;;;;5079884;28;21496;-72
2023/02/04 02:48:20;;;;;;;;;;;9.30;99.90;;;;;;5081573;28;19930;-72
2023/02/04 02:50:47;;;;;;;;;;;9.40;99.90;;;;;;5082595;28;20159;-72
2023/02/04 02:53:15;;;;;;;;;;;9.30;99.90;;;;;;5080699;28;19931;-72
2023/02/04 02:55:42;;;;;;;;;;;9.30;99.90;;;;;;5082272;28;19951;-72
2023/02/04 02:58:13;;;;;;;;;;;9.20;99.90;;;;;;5082615;28;19924;-72
2023/02/04 03:00:40;;;;;;;;;;;9.20;99.90;;;;;;5081106;28;20375;-72
2023/02/04 03:03:08;;;;;;;;;;;9.00;99.90;;;;;;5080967;28;20171;-72
2023/02/04 03:05:37;;;;;;;;;;;8.70;99.90;;;;;;5087823;28;20019;-72
2023/02/04 03:08:04;;;;;;;;;;;8.50;99.90;;;;;;5084515;28;19924;-72
2023/02/04 03:10:31;;;;;;;;;;;8.50;99.90;;;;;;5077121;28;19933;-72
2023/02/04 03:12:57;;;;;;;;;;;8.40;99.90;;;;;;5087539;28;19930;-72
2023/02/04 03:15:26;;;;;;;;;;;8.40;99.90;;;;;;5090321;28;20328;-72
2023/02/04 03:17:55;;;;;;;;;;;8.40;99.90;;;;;;5073364;28;20215;-72
2023/02/04 03:20:22;;;;;;;;;;;8.40;99.90;;;;;;5076776;28;19924;-72
2023/02/04 03:22:49;;;;;;;;;;;8.40;99.90;;;;;;5074909;28;20397;-73
2023/02/04 03:25:16;;;;;;;;;;;8.40;99.90;;;;;;5083795;28;20286;-72
2023/02/04 03:27:43;;;;;;;;;;;8.40;99.90;;;;;;5071908;28;19972;-72
2023/02/04 03:30:10;;;;;;;;;;;8.30;99.90;;;;;;5078917;28;19924;-72
2023/02/04 03:32:38;;;;;;;;;;;8.30;99.90;;;;;;5080465;28;20011;-71
2023/02/04 03:35:05;;;;;;;;;;;8.30;99.90;;;;;;5081044;28;20015;-72
2023/02/04 03:37:31;;;;;;;;;;;8.30;99.90;;;;;;5081758;28;19928;-72
2023/02/04 03:39:58;;;;;;;;;;;8.30;99.90;;;;;;5081645;28;20284;-72
2023/02/04 03:42:25;;;;;;;;;;;8.30;99.90;;;;;;5073143;28;19983;-72
2023/02/04 03:44:51;;;;;;;;;;;8.30;99.90;;;;;;5082485;28;19930;-72
2023/02/04 03:47:18;;;;;;;;;;;8.20;99.90;;;;;;5076191;28;20003;-72
2023/02/04 03:49:46;;;;;;;;;;;8.30;99.90;;;;;;5071946;28;19932;-72
2023/02/04 03:52:12;;;;;;;;;;;8.30;99.90;;;;;;5082030;28;20003;-72
2023/02/04 03:54:39;;;;;;;;;;;8.20;99.90;;;;;;5080253;28;19999;-71
2023/02/04 03:57:06;;;;;;;;;;;8.30;99.90;;;;;;5086644;28;20298;-71
2023/02/04 03:59:33;;;;;;;;;;;8.30;99.90;;;;;;5078548;28;20307;-72
2023/02/04 04:01:59;;;;;;;;;;;8.20;99.90;;;;;;5081108;28;20011;-71
2023/02/04 04:04:26;;;;;;;;;;;8.20;99.90;;;;;;5074848;28;19928;-71
2023/02/04 04:06:54;;;;;;;;;;;8.30;99.90;;;;;;5072201;28;19925;-72
2023/02/04 04:09:21;;;;;;;;;;;8.20;99.90;;;;;;5082681;28;19932;-72
2023/02/04 04:11:48;;;;;;;;;;;8.20;99.90;;;;;;5085623;28;20015;-72
2023/02/04 04:14:14;;;;;;;;;;;8.20;99.90;;;;;;5082798;28;20552;-70
2023/02/04 04:16:41;;;;;;;;;;;8.30;99.90;;;;;;5076642;28;19931;-71
2023/02/04 04:19:07;;;;;;;;;;;8.30;99.90;;;;;;5085761;28;19928;-70
2023/02/04 04:21:34;;;;;;;;;;;8.30;99.90;;;;;;5081330;28;19930;-71
2023/02/04 04:24:02;;;;;;;;;;;8.40;99.90;;;;;;5071091;28;20030;-72
2023/02/04 04:26:29;;;;;;;;;;;8.40;99.90;;;;;;5085070;28;19924;-71
2023/02/04 04:28:55;;;;;;;;;;;8.40;99.90;;;;;;5076908;28;19924;-73
2023/02/04 04:31:22;;;;;;;;;;;8.40;99.90;;;;;;5081773;28;20023;-71
2023/02/04 04:33:49;;;;;;;;;;;8.50;99.90;;;;;;5072104;28;20023;-71
2023/02/04 04:36:15;;;;;;;;;;;8.50;99.90;;;;;;5076788;28;20114;-71
2023/02/04 04:38:42;;;;;;;;;;;8.50;99.90;;;;;;5075917;28;19967;-72
2023/02/04 04:41:10;;;;;;;;;;;8.50;99.90;;;;;;5074141;28;19925;-71
2023/02/04 04:43:37;;;;;;;;;;;8.50;99.90;;;;;;5083180;28;19930;-71
2023/02/04 04:46:03;;;;;;;;;;;8.50;99.90;;;;;;5086935;28;20011;-72
2023/02/04 04:48:30;;;;;;;;;;;8.50;99.90;;;;;;5079070;28;19924;-72
2023/02/04 04:50:57;;;;;;;;;;;8.60;99.90;;;;;;5076602;28;20341;-72
2023/02/04 04:53:24;;;;;;;;;;;8.60;99.90;;;;;;5076539;28;20286;-72
2023/02/04 04:55:50;;;;;;;;;;;8.60;99.90;;;;;;5072857;28;19924;-73
2023/02/04 04:58:18;;;;;;;;;;;8.60;99.90;;;;;;5077925;28;20178;-72
2023/02/04 05:00:45;;;;;;;;;;;8.60;99.90;;;;;;5074440;28;19931;-73
2023/02/04 05:03:12;;;;;;;;;;;8.60;99.90;;;;;;5075838;28;19925;-72
2023/02/04 05:05:40;;;;;;;;;;;8.60;99.90;;;;;;5075432;28;19971;-72
2023/02/04 05:08:09;;;;;;;;;;;8.60;99.90;;;;;;5074838;28;19931;-72
2023/02/04 05:10:36;;;;;;;;;;;8.60;99.90;;;;;;5083717;28;20298;-73
2023/02/04 05:13:03;;;;;;;;;;;8.60;99.90;;;;;;5082481;28;20031;-72
2023/02/04 05:15:31;;;;;;;;;;;8.60;99.90;;;;;;5078280;28;20015;-72
2023/02/04 05:17:58;;;;;;;;;;;8.60;99.90;;;;;;5075724;28;19924;-73
2023/02/04 05:20:24;;;;;;;;;;;8.60;99.90;;;;;;5083668;28;19924;-72
2023/02/04 05:22:51;;;;;;;;;;;8.60;99.90;;;;;;5077430;28;19930;-72
2023/02/04 05:25:18;;;;;;;;;;;8.60;99.90;;;;;;5077620;28;19930;-72
2023/02/04 05:27:44;;;;;;;;;;;8.60;99.90;;;;;;5075384;28;19935;-72
2023/02/04 05:30:12;;;;;;;;;;;8.60;99.90;;;;;;5074192;28;20268;-72
2023/02/04 05:32:40;;;;;;;;;;;8.60;99.90;;;;;;5073022;28;20490;-72
2023/02/04 05:35:07;;;;;;;;;;;8.60;99.90;;;;;;5073895;28;19932;-72
2023/02/04 05:37:34;;;;;;;;;;;8.60;99.90;;;;;;5077151;28;19975;-72
2023/02/04 05:40:00;;;;;;;;;;;8.60;99.90;;;;;;5076235;28;19925;-72
2023/02/04 05:42:27;;;;;;;;;;;8.50;99.90;;;;;;5081593;28;19924;-72
2023/02/04 05:44:54;;;;;;;;;;;8.60;99.90;;;;;;5076282;28;20014;-72
2023/02/04 05:47:20;;;;;;;;;;;8.60;99.90;;;;;;5068864;28;19971;-72
2023/02/04 05:49:48;;;;;;;;;;;8.60;99.90;;;;;;5082469;28;20479;-72
2023/02/04 05:52:15;;;;;;;;;;;8.60;99.90;;;;;;5086523;28;19924;-72
2023/02/04 05:54:42;;;;;;;;;;;8.60;99.90;;;;;;5080042;28;19971;-73
2023/02/04 05:57:08;;;;;;;;;;;8.60;99.90;;;;;;5073458;28;19924;-72
2023/02/04 05:59:35;;;;;;;;;;;8.60;99.90;;;;;;5073357;28;19932;-72
2023/02/04 06:02:02;;;;;;;;;;;8.60;99.90;;;;;;5074586;28;19991;-72
2023/02/04 06:04:28;;;;;;;;;;;8.60;99.90;;;;;;5079941;28;20019;-72
2023/02/04 06:06:56;;;;;;;;;;;8.60;99.90;;;;;;5089132;28;19925;-72
2023/02/04 06:09:23;;;;;;;;;;;8.60;99.90;;;;;;5084390;28;19924;-73
2023/02/04 06:11:50;;;;;;;;;;;8.60;99.90;;;;;;5083491;28;20003;-72
2023/02/04 06:14:16;;;;;;;;;;;8.60;99.90;;;;;;5078871;28;19925;-72
2023/02/04 06:16:43;;;;;;;;;;;8.60;99.90;;;;;;5085625;28;20007;-72
2023/02/04 06:19:10;;;;;;;;;;;8.70;99.90;;;;;;5083189;28;20011;-73
2023/02/04 06:21:36;;;;;;;;;;;8.70;99.90;;;;;;5087401;28;20027;-73
2023/02/04 06:24:05;;;;;;;;;;;8.70;99.90;;;;;;5089968;28;20026;-73
2023/02/04 06:26:31;;;;;;;;;;;8.70;99.90;;;;;;5077397;28;20559;-73
2023/02/04 06:28:58;;;;;;;;;;;8.70;99.90;;;;;;5077099;28;19924;-73
2023/02/04 06:31:25;;;;;;;;;;;8.70;99.90;;;;;;5075046;28;20276;-72
2023/02/04 06:33:51;;;;;;;;;;;8.70;99.90;;;;;;5072869;28;19930;-68
2023/02/04 06:36:18;;;;;;;;;;;8.60;99.90;;;;;;5076024;28;20391;-68
2023/02/04 06:38:45;;;;;;;;;;;8.50;99.90;;;;;;5083854;28;20298;-69
2023/02/04 06:41:13;;;;;;;;;;;8.50;99.90;;;;;;5082235;28;20012;-68
2023/02/04 06:43:39;;;;;;;;;;;8.50;99.90;;;;;;5082227;28;19924;-73
2023/02/04 06:46:06;;;;;;;;;;;8.50;99.90;;;;;;5083596;28;20016;-74
2023/02/04 06:48:33;;;;;;;;;;;8.50;99.90;;;;;;5081437;28;19924;-73
2023/02/04 06:50:59;;;;;;;;;;;8.50;99.90;;;;;;5087249;28;20451;-73
2023/02/04 06:53:26;;;;;;;;;;;8.60;99.90;;;;;;5089588;28;19924;-74
2023/02/04 06:55:52;;;;;;;;;;;8.60;99.90;;;;;;5090571;28;19967;-73
2023/02/04 06:58:20;;;;;;;;;;;8.60;99.90;;;;;;5080536;28;20038;-73
2023/02/04 07:00:47;;;;;;;;;;;8.60;99.90;;;;;;5079810;28;19928;-73
2023/02/04 07:03:14;;;;;;;;;;;8.70;99.90;;;;;;5085780;28;19998;-73
2023/02/04 07:05:40;;;;;;;;;;;8.70;99.90;;;;;;5084698;28;19928;-73
2023/02/04 07:08:07;;;;;;;;;;;8.70;99.90;;;;;;5075368;28;19946;-72
2023/02/04 07:10:34;;;;;;;;;;;8.70;99.90;;;;;;5083261;28;19925;-73
2023/02/04 07:13:00;;;;;;;;;;;8.70;99.90;;;;;;5076668;28;19925;-73
2023/02/04 07:15:29;;;;;;;;;;;8.80;99.90;;;;;;5078853;28;20015;-73
2023/02/04 07:17:56;;;;;;;;;;;8.70;99.90;;;;;;5076062;28;20420;-73
2023/02/04 07:20:23;;;;;;;;;;;8.70;99.90;;;;;;5084630;28;20023;-73
2023/02/04 07:22:49;;;;;;;;;;;8.80;99.90;;;;;;5089127;28;19931;-73
2023/02/04 07:25:16;;;;;;;;;;;8.70;99.90;;;;;;5081940;28;20015;-72
2023/02/04 07:27:43;;;;;;;;;;;8.70;99.90;;;;;;5074469;28;19948;-72
2023/02/04 07:30:11;;;;;;;;;;;8.70;99.90;;;;;;5070278;28;20453;-73
2023/02/04 07:32:39;;;;;;;;;;;8.60;99.90;;;;;;5083701;28;19956;-73
2023/02/04 07:35:06;;;;;;;;;;;8.60;99.90;;;;;;5071406;28;20475;-72
2023/02/04 07:37:32;;;;;;;;;;;8.60;99.90;;;;;;5070791;28;20063;-72
2023/02/04 07:39:59;;;;;;;;;;;8.60;99.90;;;;;;5085055;28;19943;-73
2023/02/04 07:42:26;;;;;;;;;;;8.70;99.90;;;;;;5073925;28;19924;-73
2023/02/04 07:44:52;;;;;;;;;;;8.70;99.90;;;;;;5076340;28;20019;-73
2023/02/04 07:47:19;;;;;;;;;;;8.70;99.90;;;;;;5077258;28;20379;-73
2023/02/04 07:49:47;;;;;;;;;;;8.80;99.90;;;;;;5071322;28;19970;-72
2023/02/04 07:52:14;;;;;;;;;;;8.80;99.90;;;;;;5083557;28;19924;-73
2023/02/04 07:54:40;;;;;;;;;;;8.80;99.90;;;;;;5075690;28;19924;-71
2023/02/04 07:57:07;;;;;;;;;;;8.70;99.90;;;;;;5084347;28;20010;-73
2023/02/04 07:59:34;;;;;;;;;;;8.70;99.90;;;;;;5085437;28;19924;-74
2023/02/04 08:02:01;;;;;;;;;;;8.70;99.90;;;;;;5080900;28;20027;-73
2023/02/04 08:04:28;;;;;;;;;;;8.70;99.90;;;;;;5071765;28;19943;-74
2023/02/04 08:06:56;;;;;;;;;;;8.70;99.90;;;;;;5068681;28;19931;-73
2023/02/04 08:09:22;;;;;;;;;;;8.70;99.90;;;;;;5073146;28;20409;-74
2023/02/04 08:11:49;;;;;;;;;;;8.80;99.90;;;;;;5075195;28;19931;-76
2023/02/04 08:14:16;;;;;;;;;;;8.70;99.90;;;;;;5077118;28;19929;-76
2023/02/04 08:16:43;;;;;;;;;;;8.80;99.90;;;;;;5081143;28;20018;-76
2023/02/04 08:19:09;;;;;;;;;;;8.80;99.90;;;;;;5078615;28;20283;-74
2023/02/04 08:21:36;;;;;;;;;;;8.70;99.90;;;;;;5073140;28;19935;-75
2023/02/04 08:24:04;;;;;;;;;;;8.70;99.90;;;;;;5077468;28;20046;-77
2023/02/04 08:26:31;;;;;;;;;;;8.70;99.90;;;;;;5083523;28;19931;-80
2023/02/04 08:28:57;;;;;;;;;;;8.70;99.90;;;;;;5075709;28;20291;-78
2023/02/04 08:31:24;;;;;;;;;;;8.70;99.90;;;;;;5078499;28;19924;-74
2023/02/04 08:34:00;;;;;;;;;;;8.70;99.90;;;;;;5080489;28;19934;-81
2023/02/04 08:36:27;;;;;;;;;;;8.70;99.90;;;;;;5070726;28;19924;-77
2023/02/04 08:38:54;;;;;;;;;;;8.70;99.90;;;;;;5076698;28;19925;-78
2023/02/04 08:41:22;;;;;;;;;;;8.70;99.90;;;;;;5084018;28;19929;-81
2023/02/04 08:43:48;;;;;;;;;;;8.80;99.90;;;;;;5076413;28;19928;-81
2023/02/04 08:46:15;;;;;;;;;;;8.80;99.90;;;;;;5076502;28;20039;-80
2023/02/04 08:48:42;;;;;;;;;;;8.80;99.90;;;;;;5076065;28;19930;-81
2023/02/04 08:51:08;;;;;;;;;;;8.70;99.90;;;;;;5076977;28;19978;-79
2023/02/04 08:53:36;;;;;;;;;;;8.80;99.90;;;;;;5080192;28;20002;-82
2023/02/04 08:56:03;;;;;;;;;;;8.80;99.90;;;;;;5082829;28;19932;-82
2023/02/04 08:58:31;;;;;;;;;;;8.80;99.90;;;;;;5084165;28;19928;-82
2023/02/04 09:00:58;;;;;;;;;;;8.80;99.90;;;;;;5077310;28;20315;-82
2023/02/04 09:03:25;;;;;;;;;;;8.70;99.90;;;;;;5076868;28;19932;-80
2023/02/04 09:05:52;;;;;;;;;;;8.80;99.90;;;;;;5079407;28;19990;-77
2023/02/04 09:08:19;;;;;;;;;;;8.90;99.90;;;;;;5073947;28;19940;-82
2023/02/04 09:10:45;;;;;;;;;;;8.90;99.90;;;;;;5074664;28;19986;-76
2023/02/04 09:13:13;;;;;;;;;;;9.00;99.90;;;;;;5080272;28;20014;-83
2023/02/04 09:15:41;;;;;;;;;;;9.00;99.90;;;;;;5076150;28;19936;-80
2023/02/04 09:18:15;;;;;;;;;;;9.10;99.90;;;;;;5073456;28;20458;-82
2023/02/04 09:20:41;;;;;;;;;;;9.10;99.90;;;;;;5070571;28;19925;-83
2023/02/04 09:23:10;;;;;;;;;;;9.10;99.90;;;;;;5072832;28;20194;-81
2023/02/04 09:25:37;;;;;;;;;;;9.20;99.90;;;;;;5082197;28;19924;-82
2023/02/04 09:28:04;;;;;;;;;;;9.30;99.90;;;;;;5076440;28;20051;-78
2023/02/04 09:30:31;;;;;;;;;;;9.30;99.90;;;;;;5074194;28;19942;-80
2023/02/04 09:32:59;;;;;;;;;;;9.40;99.90;;;;;;5081538;28;20038;-82
2023/02/04 09:35:26;;;;;;;;;;;9.40;99.90;;;;;;5083450;28;21099;-76
2023/02/04 09:37:52;;;;;;;;;;;9.50;99.90;;;;;;5071978;28;20016;-77
2023/02/04 09:40:20;;;;;;;;;;;9.60;99.90;;;;;;5076048;28;19970;-76
2023/02/04 09:42:48;;;;;;;;;;;9.70;99.90;;;;;;5073473;28;19932;-78
2023/02/04 09:45:17;;;;;;;;;;;9.90;99.90;;;;;;5075838;28;19967;-78
2023/02/04 09:47:44;;;;;;;;;;;9.90;99.90;;;;;;5078235;28;19968;-77
2023/02/04 09:50:14;;;;;;;;;;;9.90;99.90;;;;;;5083136;28;19964;-79
2023/02/04 09:52:41;;;;;;;;;;;9.80;99.90;;;;;;5078333;28;19939;-79
2023/02/04 09:55:12;;;;;;;;;;;9.70;99.90;;;;;;5087106;28;19932;-80
2023/02/04 09:57:40;;;;;;;;;;;9.70;99.90;;;;;;5077811;28;19980;-78
2023/02/04 10:00:06;;;;;;;;;;;9.80;99.90;;;;;;5079852;28;19935;-77
2023/02/04 10:02:34;;;;;;;;;;;9.80;99.90;;;;;;5073926;28;19924;-77
2023/02/04 10:05:01;;;;;;;;;;;9.80;99.90;;;;;;5084877;28;19985;-79
2023/02/04 10:07:31;;;;;;;;;;;9.80;99.90;;;;;;5077599;28;19928;-78
2023/02/04 10:09:58;;;;;;;;;;;9.80;99.90;;;;;;5084068;28;20379;-80
2023/02/04 10:12:26;;;;;;;;;;;9.80;99.90;;;;;;5081194;28;20303;-79
2023/02/04 10:14:52;;;;;;;;;;;9.80;99.90;;;;;;5076002;28;20031;-78
2023/02/04 10:17:21;;;;;;;;;;;9.70;99.90;;;;;;5079070;28;20454;-80
2023/02/04 10:19:49;;;;;;;;;;;9.80;99.90;;;;;;5073001;28;20023;-78
2023/02/04 10:22:17;;;;;;;;;;;9.80;99.90;;;;;;5076446;28;19932;-77
2023/02/04 10:24:45;;;;;;;;;;;9.80;99.90;;;;;;5078410;28;19975;-75
2023/02/04 10:27:14;;;;;;;;;;;9.80;99.90;;;;;;5080711;28;19946;-76
2023/02/04 10:29:42;;;;;;;;;;;9.80;99.90;;;;;;5069721;28;19924;-75
2023/02/04 10:32:23;;;;;;;;;;;9.80;99.90;;;;;;5075708;28;19928;-81
2023/02/04 10:34:50;;;;;;;;;;;9.90;99.90;;;;;;5077407;28;19963;-80
2023/02/04 10:37:19;;;;;;;;;;;9.90;99.90;;;;;;5084850;28;20035;-77
2023/02/04 10:39:48;;;;;;;;;;;9.90;99.90;;;;;;5084820;28;19947;-78
2023/02/04 10:42:20;;;;;;;;;;;10.00;99.90;;;;;;5069701;28;20038;-78
2023/02/04 10:44:47;;;;;;;;;;;10.00;99.90;;;;;;5071646;28;19925;-79
2023/02/04 10:47:15;;;;;;;;;;;10.00;99.90;;;;;;5068481;28;19963;-77
2023/02/04 10:49:51;;;;;;;;;;;10.10;99.90;;;;;;5080216;28;19938;-78
2023/02/04 10:52:19;;;;;;;;;;;10.20;99.90;;;;;;5083608;28;19924;-78
2023/02/04 10:54:45;;;;;;;;;;;10.20;99.90;;;;;;5067568;28;20015;-76
2023/02/04 10:57:17;;;;;;;;;;;10.30;99.90;;;;;;5079808;28;20260;-76
2023/02/04 10:59:44;;;;;;;;;;;10.30;99.90;;;;;;5078014;28;19944;-76
2023/02/04 11:02:32;;;;;;;;;;;10.30;99.90;;;;;;5086002;28;20015;-76
2023/02/04 11:04:59;;;;;;;;;;;10.30;99.90;;;;;;5079710;28;19930;-76
2023/02/04 11:07:25;;;;;;;;;;;10.40;99.90;;;;;;5089461;28;20380;-74
2023/02/04 11:09:52;;;;;;;;;;;10.50;99.90;;;;;;5095951;28;19924;-75
2023/02/04 11:12:21;;;;;;;;;;;10.60;99.90;;;;;;5073294;28;19924;-75
2023/02/04 11:14:54;;;;;;;;;;;10.70;99.90;;;;;;5074941;28;20413;-75
2023/02/04 11:17:21;;;;;;;;;;;10.80;99.90;;;;;;5087390;28;20010;-76
2023/02/04 11:19:49;;;;;;;;;;;10.90;99.90;;;;;;5075239;28;19925;-76
2023/02/04 11:22:23;;;;;;;;;;;11.00;99.90;;;;;;5073724;28;19924;-75
2023/02/04 11:24:50;;;;;;;;;;;11.00;99.90;;;;;;5072703;28;19940;-74
2023/02/04 11:27:23;;;;;;;;;;;11.00;99.90;;;;;;5070752;28;20027;-74
2023/02/04 11:29:50;;;;;;;;;;;11.10;99.90;;;;;;5067845;28;19924;-75
2023/02/04 11:32:30;;;;;;;;;;;11.00;99.90;;;;;;5071922;28;19971;-76
2023/02/04 11:35:06;;;;;;;;;;;11.10;99.90;;;;;;5068192;28;20015;-75
2023/02/04 11:37:37;;;;;;;;;;;11.30;99.90;;;;;;5071517;28;19924;-75
2023/02/04 11:40:22;;;;;;;;;;;11.40;99.90;;;;;;5088007;28;19924;-75
2023/02/04 11:42:56;;;;;;;;;;;11.30;99.90;;;;;;5084064;28;20011;-76
2023/02/04 11:45:25;;;;;;;;;;;11.10;99.90;;;;;;5055512;28;19932;-77
2023/02/04 11:47:51;;;;;;;;;;;11.10;99.90;;;;;;5071815;28;19975;-76
2023/02/04 11:50:20;;;;;;;;;;;11.30;99.90;;;;;;5059298;28;19925;-77
2023/02/04 11:52:47;;;;;;;;;;;11.40;99.90;;;;;;5070547;28;19932;-78
2023/02/04 11:55:14;;;;;;;;;;;11.50;99.90;;;;;;5055152;28;19931;-77
2023/02/04 11:57:41;;;;;;;;;;;11.60;99.90;;;;;;5053071;28;22169;-77
2023/02/04 12:00:14;;;;;;;;;;;11.30;99.90;;;;;;5068499;28;19935;-77
2023/02/04 12:02:42;;;;;;;;;;;11.30;99.90;;;;;;5053569;28;20440;-77
2023/02/04 12:05:10;;;;;;;;;;;11.10;99.90;;;;;;5062761;28;19964;-77
2023/02/04 12:07:36;;;;;;;;;;;11.30;99.90;;;;;;5053838;28;19964;-76
2023/02/04 12:10:11;;;;;;;;;;;11.40;99.90;;;;;;5071789;28;19928;-78
2023/02/04 12:12:42;;;;;;;;;;;11.40;99.90;;;;;;5050798;28;19967;-77
2023/02/04 12:15:14;;;;;;;;;;;11.50;99.90;;;;;;5054038;28;19925;-75
2023/02/04 12:17:44;;;;;;;;;;;11.60;99.90;;;;;;5053006;28;19948;-77
2023/02/04 12:20:11;;;;;;;;;;;11.60;99.90;;;;;;5052611;28;20295;-76
2023/02/04 12:22:38;;;;;;;;;;;11.50;99.90;;;;;;5051788;28;20519;-76
2023/02/04 12:25:05;;;;;;;;;;;11.40;99.90;;;;;;5051565;28;19931;-75
2023/02/04 12:27:32;;;;;;;;;;;11.50;99.90;;;;;;5063575;28;19925;-75
2023/02/04 12:29:59;;;;;;;;;;;11.50;99.90;;;;;;5066330;28;20333;-76
2023/02/04 12:32:25;;;;;;;;;;;11.50;99.90;;;;;;5051740;28;20003;-77
2023/02/04 12:34:53;;;;;;;;;;;11.60;99.90;;;;;;5052402;28;19928;-73
2023/02/04 12:37:20;;;;;;;;;;;11.70;99.90;;;;;;5052985;28;19924;-78
2023/02/04 12:39:47;;;;;;;;;;;11.80;99.90;;;;;;5052435;28;20019;-77
2023/02/04 12:42:14;;;;;;;;;;;11.90;99.90;;;;;;5058952;28;20486;-76
2023/02/04 12:44:40;;;;;;;;;;;11.80;99.90;;;;;;5080916;28;19984;-76
2023/02/04 12:47:07;;;;;;;;;;;11.70;99.90;;;;;;5089765;28;19924;-79
2023/02/04 12:49:34;;;;;;;;;;;11.60;99.90;;;;;;5089260;28;19930;-77
2023/02/04 12:52:02;;;;;;;;;;;11.50;99.90;;;;;;5081064;28;20011;-76
2023/02/04 12:54:29;;;;;;;;;;;11.50;99.90;;;;;;5080995;28;20399;-76
2023/02/04 12:56:57;;;;;;;;;;;11.20;99.90;;;;;;5072289;28;20391;-76
2023/02/04 12:59:23;;;;;;;;;;;11.10;99.90;;;;;;5071637;28;20129;-77
2023/02/04 13:01:50;;;;;;;;;;;11.20;99.90;;;;;;5087619;28;20340;-76
2023/02/04 13:04:17;;;;;;;;;;;11.30;99.90;;;;;;5076018;28;20007;-76
2023/02/04 13:06:44;;;;;;;;;;;11.30;99.90;;;;;;5070380;28;19967;-77
2023/02/04 13:09:12;;;;;;;;;;;11.20;99.90;;;;;;5070927;28;19971;-76
2023/02/04 13:11:38;;;;;;;;;;;11.20;99.90;;;;;;5079385;28;19928;-77
2023/02/04 13:14:05;;;;;;;;;;;11.10;99.90;;;;;;5085957;28;19932;-76
2023/02/04 13:16:32;;;;;;;;;;;11.10;99.90;;;;;;5078937;28;19931;-76
2023/02/04 13:18:59;;;;;;;;;;;11.10;99.90;;;;;;5072344;28;19924;-75
2023/02/04 13:21:26;;;;;;;;;;;11.20;99.90;;;;;;5083806;28;19931;-76
2023/02/04 13:23:52;;;;;;;;;;;11.30;99.90;;;;;;5087909;28;19993;-76
2023/02/04 13:26:20;;;;;;;;;;;11.30;99.90;;;;;;5073209;28;19924;-76
2023/02/04 13:28:47;;;;;;;;;;;11.40;99.90;;;;;;5070741;28;20341;-75
2023/02/04 13:31:14;;;;;;;;;;;11.50;99.90;;;;;;5072905;28;19928;-76
2023/02/04 13:33:41;;;;;;;;;;;11.50;99.90;;;;;;5072866;28;20307;-77
2023/02/04 13:36:08;;;;;;;;;;;11.50;99.90;;;;;;5071212;28;19928;-76
2023/02/04 13:38:34;;;;;;;;;;;11.50;99.90;;;;;;5070990;28;19982;-76
2023/02/04 13:41:01;;;;;;;;;;;11.50;99.90;;;;;;5074816;28;19968;-78
2023/02/04 13:43:29;;;;;;;;;;;11.60;99.90;;;;;;5074791;28;19929;-77
2023/02/04 13:45:56;;;;;;;;;;;11.60;99.90;;;;;;5054826;28;20399;-78
2023/02/04 13:48:23;;;;;;;;;;;11.60;99.90;;;;;;5061606;28;19928;-78
2023/02/04 13:50:50;;;;;;;;;;;11.70;99.90;;;;;;5063690;28;20016;-77
2023/02/04 13:53:17;;;;;;;;;;;11.80;99.90;;;;;;5057958;28;19932;-78
2023/02/04 13:55:43;;;;;;;;;;;11.80;99.90;;;;;;5063138;28;20455;-77
2023/02/04 13:58:10;;;;;;;;;;;11.80;99.90;;;;;;5053008;28;20375;-78
2023/02/04 14:00:38;;;;;;;;;;;11.80;99.90;;;;;;5057978;28;19990;-78
2023/02/04 14:03:05;;;;;;;;;;;11.80;99.90;;;;;;5058907;28;20331;-79
2023/02/04 14:05:32;;;;;;;;;;;11.70;99.90;;;;;;5068608;28;19975;-77
2023/02/04 14:07:59;;;;;;;;;;;11.70;99.90;;;;;;5052450;28;19932;-78
2023/02/04 14:10:25;;;;;;;;;;;11.70;99.90;;;;;;5057124;28;19975;-78
2023/02/04 14:12:53;;;;;;;;;;;11.60;99.90;;;;;;5058531;28;20453;-78
2023/02/04 14:15:19;;;;;;;;;;;11.60;99.90;;;;;;5058528;28;19946;-78
2023/02/04 14:17:47;;;;;;;;;;;11.60;99.90;;;;;;5054815;28;19930;-79
2023/02/04 14:20:14;;;;;;;;;;;11.60;99.90;;;;;;5067243;28;20453;-78
2023/02/04 14:22:41;;;;;;;;;;;11.50;99.90;;;;;;5054157;28;19932;-79
2023/02/04 14:25:09;;;;;;;;;;;11.50;99.90;;;;;;5057048;28;19928;-78
2023/02/04 14:27:39;;;;;;;;;;;11.50;99.90;;;;;;5058067;28;19932;-77